FSP weather

St Pierre Airport
Saint-Pierre, Saint-Pierre, Saint Pierre and Miquelon

Public forecast

Using degrees Celsius for public forecast. Weather courtesy of forecast.io.

METAR (pilot weather report)

Retrieved 2019/07/20 19:00 UTC (36 minutes ago):

LFVP 201900Z 25011KT CAVOK 19/13 Q1002 NOSIG

TAF (pilot weather forecast)

Retrieved 2019/07/20 18:00 UTC (2 hours ago):

TAF LFVP 201700Z 2018/2103 24008KT CAVOK BECMG 2023/2101 8000 FEW002 BECMG 2101/2103 0300 FG OVC001